Time;durP1;ratioP1;P1;durP2;ratioP2;P2;SDS_P1;SDS_P2;PMS_P1;PMS_P2;Temp;Humidity;BMP_temperature;BMP_pressure;BME280_temperature;BME280_humidity;BME280_pressure;Samples;Min_cycle;Max_cycle;Signal;HPM_P1;HPM_P2
2022/05/15 00:02:17;;;;;;;2.45;1.20;;;;;;;21.13;45.73;102142.06;5085432;28;20058;-43
2022/05/15 00:04:42;;;;;;;2.65;1.15;;;;;;;21.13;45.69;102138.50;5105355;28;20087;-44
2022/05/15 00:07:07;;;;;;;2.50;0.90;;;;;;;21.13;45.62;102133.94;5106154;28;20040;-45
2022/05/15 00:09:33;;;;;;;2.50;1.20;;;;;;;21.08;45.38;102124.59;5106173;28;20028;-47
2022/05/15 00:11:58;;;;;;;2.40;1.05;;;;;;;21.14;45.33;102134.78;5105261;28;20035;-44
2022/05/15 00:14:23;;;;;;;1.85;1.08;;;;;;;21.13;45.36;102127.69;5106123;28;20059;-48
2022/05/15 00:16:49;;;;;;;2.30;1.20;;;;;;;21.13;45.38;102130.38;5105398;28;20032;-45
2022/05/15 00:19:14;;;;;;;2.45;1.00;;;;;;;21.13;45.57;102114.16;5101070;28;20176;-44
2022/05/15 00:21:39;;;;;;;2.33;1.25;;;;;;;21.12;45.47;102123.28;5085453;28;20082;-46
2022/05/15 00:24:05;;;;;;;2.45;1.23;;;;;;;21.11;45.50;102113.44;5079543;28;20098;-44
2022/05/15 00:26:32;;;;;;;1.45;0.95;;;;;;;21.12;45.06;102124.13;5084630;28;20051;-47
2022/05/15 00:28:57;;;;;;;1.83;1.00;;;;;;;21.12;45.17;102120.56;5085442;28;20096;-46
2022/05/15 00:31:23;;;;;;;2.50;1.20;;;;;;;21.11;45.23;102122.44;5084755;28;20036;-43
2022/05/15 00:33:49;;;;;;;2.92;1.20;;;;;;;21.12;45.28;102126.00;5085613;28;20031;-45
2022/05/15 00:36:14;;;;;;;2.60;1.17;;;;;;;21.11;44.82;102121.56;5085340;28;20028;-46
2022/05/15 00:38:39;;;;;;;2.78;1.27;;;;;;;21.11;45.30;102126.97;5085300;28;20036;-46
2022/05/15 00:41:05;;;;;;;1.63;1.00;;;;;;;21.07;45.15;102117.47;5085133;28;20036;-44
2022/05/15 00:43:36;;;;;;;2.15;1.02;;;;;;;21.11;45.13;102113.44;5084746;28;20024;-44
2022/05/15 00:46:04;;;;;;;2.67;1.45;;;;;;;21.11;45.22;102121.56;5084608;28;20065;-44
2022/05/15 00:48:29;;;;;;;1.20;0.90;;;;;;;21.11;45.03;102116.16;5085289;28;20028;-44
2022/05/15 00:50:55;;;;;;;2.33;1.20;;;;;;;21.06;44.78;102111.22;5084628;28;20044;-46
2022/05/15 00:53:20;;;;;;;2.47;1.00;;;;;;;21.10;44.63;102117.16;5084983;28;20119;-48
2022/05/15 00:55:49;;;;;;;2.58;1.23;;;;;;;21.09;44.56;102119.03;5084986;28;20041;-46
2022/05/15 00:58:25;;;;;;;2.25;1.02;;;;;;;21.10;44.62;102112.59;5083530;28;20036;-45
2022/05/15 01:00:50;;;;;;;1.75;0.80;;;;;;;21.09;44.74;102116.31;5084394;28;20016;-46
2022/05/15 01:03:17;;;;;;;2.45;0.80;;;;;;;21.09;44.39;102116.31;5092061;28;20024;-45
2022/05/15 01:05:48;;;;;;;1.98;1.20;;;;;;;21.09;44.58;102112.75;5105304;28;20027;-44
2022/05/15 01:08:14;;;;;;;3.33;1.42;;;;;;;21.08;44.88;102113.78;5103628;28;20115;-47
2022/05/15 01:10:45;;;;;;;2.20;1.10;;;;;;;21.08;44.64;102111.06;5104756;28;20568;-47
2022/05/15 01:13:11;;;;;;;1.95;1.33;;;;;;;21.08;44.21;102111.06;5104382;28;20028;-45
2022/05/15 01:15:37;;;;;;;2.63;1.17;;;;;;;21.07;44.21;102114.75;5104312;28;20043;-48
2022/05/15 01:18:03;;;;;;;2.63;1.23;;;;;;;21.06;44.18;102121.19;5105041;28;20020;-46
2022/05/15 01:20:30;;;;;;;3.35;1.30;;;;;;;21.07;44.56;102112.06;5090430;28;20028;-46
2022/05/15 01:22:55;;;;;;;1.25;0.70;;;;;;;21.06;44.28;102113.06;5084478;28;20135;-44
2022/05/15 01:25:24;;;;;;;2.15;0.98;;;;;;;21.06;44.50;102124.72;5084469;28;20040;-44
2022/05/15 01:28:09;;;;;;;1.73;1.00;;;;;;;21.05;44.12;102117.63;5083926;28;20084;-46
2022/05/15 01:30:38;;;;;;;1.95;1.10;;;;;;;21.05;44.02;102122.19;5082422;28;20070;-44
2022/05/15 01:33:04;;;;;;;;;;;;;;;21.00;44.25;102113.69;5084787;28;20080;-45
2022/05/15 01:35:30;;;;;;;1.15;0.95;;;;;;;21.00;44.09;102119.94;5084292;28;19908;-48
2022/05/15 01:37:55;;;;;;;2.15;1.13;;;;;;;21.01;44.37;102120.78;5082570;28;20468;-48
2022/05/15 01:40:20;;;;;;;2.22;1.15;;;;;;;20.99;44.02;102112.84;5084284;28;20477;-49
2022/05/15 01:42:46;;;;;;;2.10;1.10;;;;;;;21.00;44.22;102111.00;5083393;28;20032;-46
2022/05/15 01:45:13;;;;;;;1.88;1.23;;;;;;;20.99;43.87;102104.72;5083621;28;20481;-47
2022/05/15 01:47:39;;;;;;;1.90;1.15;;;;;;;20.99;43.91;102106.59;5083558;28;20028;-47
2022/05/15 01:50:05;;;;;;;2.22;1.10;;;;;;;21.00;43.77;102100.16;5083599;28;20123;-47
2022/05/15 01:52:30;;;;;;;1.85;1.10;;;;;;;20.98;43.75;102094.91;5083921;28;20024;-46
2022/05/15 01:54:56;;;;;;;2.25;1.20;;;;;;;20.99;43.93;102104.72;5084083;28;20021;-46
2022/05/15 01:57:21;;;;;;;1.58;1.02;;;;;;;20.98;44.03;102105.72;5083531;28;20028;-46
2022/05/15 01:59:47;;;;;;;1.10;0.80;;;;;;;20.98;43.85;102103.00;5084065;28;20024;-45
2022/05/15 02:02:12;;;;;;;1.90;1.00;;;;;;;20.98;43.69;102103.00;5083094;28;20024;-47
2022/05/15 02:04:37;;;;;;;2.30;1.30;;;;;;;20.96;44.01;102103.19;5102529;28;20046;-45
2022/05/15 02:07:03;;;;;;;1.38;1.00;;;;;;;20.97;43.80;102110.28;5103870;28;20074;-46
2022/05/15 02:09:28;;;;;;;2.00;1.15;;;;;;;20.96;44.05;102103.19;5103960;28;20039;-43
2022/05/15 02:11:53;;;;;;;2.95;1.30;;;;;;;20.96;44.16;102108.59;5102988;28;20091;-45
2022/05/15 02:14:19;;;;;;;1.67;1.00;;;;;;;20.96;43.63;102105.88;5088453;28;20024;-47
2022/05/15 02:16:44;;;;;;;2.25;1.17;;;;;;;20.95;43.80;102106.03;5082922;28;20033;-43
2022/05/15 02:19:09;;;;;;;1.58;1.10;;;;;;;20.93;43.92;102103.47;5083670;28;20445;-44
2022/05/15 02:21:34;;;;;;;1.73;1.10;;;;;;;20.94;43.70;102105.19;5083587;28;20473;-48
2022/05/15 02:24:00;;;;;;;1.77;0.90;;;;;;;20.94;43.43;102097.09;5083615;28;20066;-48
2022/05/15 02:26:26;;;;;;;2.22;1.00;;;;;;;20.93;43.55;102091.81;5083133;28;20043;-48
2022/05/15 02:28:51;;;;;;;2.20;1.05;;;;;;;20.92;43.71;102093.66;5083503;28;20036;-45
2022/05/15 02:31:17;;;;;;;2.15;1.17;;;;;;;20.93;43.67;102089.09;5083041;28;20025;-43
2022/05/15 02:33:42;;;;;;;1.75;1.10;;;;;;;20.89;43.66;102077.75;5083319;28;20080;-46
2022/05/15 02:36:08;;;;;;;1.85;0.90;;;;;;;20.92;43.93;102073.91;5083462;28;20465;-44
2022/05/15 02:38:34;;;;;;;1.58;1.08;;;;;;;20.91;43.55;102067.66;5083436;28;20028;-44
2022/05/15 02:40:59;;;;;;;1.92;1.10;;;;;;;20.89;43.78;102071.50;5082035;28;20538;-44
2022/05/15 02:43:24;;;;;;;1.70;1.17;;;;;;;20.90;43.94;102074.06;5082159;28;20035;-44
2022/05/15 02:45:50;;;;;;;3.25;1.35;;;;;;;20.90;43.88;102075.91;5082866;28;20027;-45
2022/05/15 02:51:05;;;;;;;1.45;0.90;;;;;;;20.89;43.58;102090.41;5083001;28;20115;-44
2022/05/15 02:53:33;;;;;;;2.80;1.30;;;;;;;20.89;43.72;102085.00;5083218;28;20040;-48
2022/05/15 02:55:59;;;;;;;2.42;1.00;;;;;;;20.88;43.86;102080.63;5084450;28;20029;-45
2022/05/15 02:58:25;;;;;;;2.35;1.20;;;;;;;20.83;43.43;102075.66;5086809;28;20028;-43
2022/05/15 03:00:50;;;;;;;2.72;1.13;;;;;;;20.86;43.72;102072.66;5086876;28;20024;-44
2022/05/15 03:03:15;;;;;;;3.30;1.52;;;;;;;20.86;43.50;102083.47;5094243;28;20035;-43
2022/05/15 03:05:41;;;;;;;2.78;1.45;;;;;;;20.85;43.40;102081.75;5107636;28;20019;-44
2022/05/15 03:08:06;;;;;;;2.95;1.00;;;;;;;20.86;43.72;102079.94;5107451;28;20027;-43
2022/05/15 03:10:31;;;;;;;1.92;1.10;;;;;;;20.85;43.74;102079.06;5105875;28;20032;-47
2022/05/15 03:12:56;;;;;;;2.88;1.20;;;;;;;20.85;43.33;102076.34;5094666;28;20033;-44
2022/05/15 03:15:22;;;;;;;2.60;1.30;;;;;;;20.84;43.41;102069.25;5066430;28;20040;-43
2022/05/15 03:17:47;;;;;;;2.42;1.20;;;;;;;20.82;43.35;102068.56;5066888;28;20036;-44
2022/05/15 03:20:16;;;;;;;2.75;1.13;;;;;;;20.84;43.29;102073.81;5065791;28;20047;-45
2022/05/15 03:22:41;;;;;;;1.55;0.98;;;;;;;20.79;43.58;102066.16;5066761;28;20029;-44
2022/05/15 03:25:08;;;;;;;3.10;1.30;;;;;;;20.82;43.29;102068.56;5066821;28;20059;-45
2022/05/15 03:27:33;;;;;;;2.13;1.00;;;;;;;20.82;43.17;102073.97;5066380;28;20094;-43
2022/05/15 03:29:59;;;;;;;1.23;1.08;;;;;;;20.81;43.58;102069.53;5066385;28;20116;-45
2022/05/15 03:32:24;;;;;;;2.20;0.90;;;;;;;20.81;43.40;102071.41;5066001;28;20028;-44
2022/05/15 03:34:49;;;;;;;1.77;0.93;;;;;;;20.79;43.34;102071.56;5066450;28;20126;-46
2022/05/15 03:37:14;;;;;;;2.53;1.38;;;;;;;20.79;43.60;102066.16;5066403;28;20033;-49
2022/05/15 03:39:40;;;;;;;1.77;1.20;;;;;;;20.79;43.58;102074.28;5066469;28;20618;-51
2022/05/15 03:42:05;;;;;;;2.67;1.33;;;;;;;20.79;43.45;102076.97;5065493;28;20451;-49
2022/05/15 03:44:30;;;;;;;2.38;1.23;;;;;;;20.79;43.45;102074.28;5083582;28;20028;-50
2022/05/15 03:46:55;;;;;;;2.80;1.02;;;;;;;20.78;43.57;102077.13;5085718;28;20042;-44
2022/05/15 03:49:21;;;;;;;1.50;0.90;;;;;;;20.77;43.50;102070.84;5086075;28;20060;-49
2022/05/15 03:51:46;;;;;;;5.05;1.30;;;;;;;20.77;43.33;102081.66;5086387;28;20028;-48
2022/05/15 03:54:11;;;;;;;2.00;1.02;;;;;;;20.76;43.26;102077.28;5086143;28;20035;-48
2022/05/15 03:56:49;;;;;;;2.40;1.10;;;;;;;20.76;43.39;102079.97;5085671;28;20107;-46
2022/05/15 03:59:27;;;;;;;1.70;1.00;;;;;;;20.76;43.41;102085.38;5086075;28;20024;-47
2022/05/15 04:01:53;;;;;;;1.52;0.80;;;;;;;20.75;43.51;102080.97;5085529;28;20028;-48
2022/05/15 04:04:19;;;;;;;1.92;1.05;;;;;;;20.75;43.08;102074.72;5101821;28;20043;-44
2022/05/15 04:06:44;;;;;;;1.58;0.93;;;;;;;20.69;43.20;102073.50;5106186;28;20035;-44
2022/05/15 04:09:09;;;;;;;2.17;1.00;;;;;;;20.75;43.01;102085.53;5106203;28;20020;-43
2022/05/15 04:11:35;;;;;;;2.20;1.15;;;;;;;20.73;43.15;102074.91;5100847;28;20085;-47
2022/05/15 04:14:00;;;;;;;4.65;1.90;;;;;;;20.74;43.35;102075.75;5086024;28;20024;-43
2022/05/15 04:16:26;;;;;;;1.88;1.20;;;;;;;20.72;42.99;102075.88;5066735;28;20028;-44
2022/05/15 04:18:51;;;;;;;2.63;0.82;;;;;;;20.70;43.29;102076.03;5065884;28;20028;-47
2022/05/15 04:21:16;;;;;;;1.92;0.95;;;;;;;20.72;43.15;102065.91;5065967;28;20048;-47
2022/05/15 04:23:41;;;;;;;1.80;1.08;;;;;;;20.71;43.03;102068.78;5065456;28;20037;-45
2022/05/15 04:26:07;;;;;;;2.55;1.00;;;;;;;20.71;43.25;102066.91;5067741;28;20032;-48
2022/05/15 04:28:32;;;;;;;1.63;1.10;;;;;;;20.71;43.19;102066.06;5080363;28;20071;-45
2022/05/15 04:30:58;;;;;;;2.17;1.05;;;;;;;20.69;43.06;102057.28;5084519;28;20017;-44
2022/05/15 04:33:23;;;;;;;2.03;1.15;;;;;;;20.70;43.33;102059.81;5084304;28;20032;-43
2022/05/15 04:35:48;;;;;;;1.95;1.00;;;;;;;20.69;43.14;102055.44;5085133;28;20021;-46
2022/05/15 04:38:13;;;;;;;2.25;1.10;;;;;;;20.69;43.10;102060.84;5084787;28;20125;-45
2022/05/15 04:40:38;;;;;;;2.17;1.13;;;;;;;20.68;43.27;102050.16;5084771;28;20020;-44
2022/05/15 04:43:04;;;;;;;2.20;1.20;;;;;;;20.68;42.86;102053.69;5083508;28;20028;-48
2022/05/15 04:45:29;;;;;;;1.48;1.05;;;;;;;20.69;43.07;102066.25;5067353;28;20028;-44
2022/05/15 04:47:54;;;;;;;1.75;1.05;;;;;;;20.65;43.09;102058.59;5064885;28;20447;-45
2022/05/15 04:50:20;;;;;;;1.00;0.85;;;;;;;20.68;42.96;102060.97;5070178;28;20044;-46
2022/05/15 04:52:46;;;;;;;1.63;0.80;;;;;;;20.65;43.34;102059.44;5078546;28;20024;-47
2022/05/15 04:55:12;;;;;;;2.22;0.93;;;;;;;20.69;43.51;102058.13;5079408;28;20030;-44
2022/05/15 04:57:38;;;;;;;1.58;1.00;;;;;;;20.69;43.49;102068.09;5059126;28;20027;-47
2022/05/15 05:00:05;;;;;;;1.83;1.02;;;;;;;20.69;43.42;102070.78;5081035;28;20080;-44
2022/05/15 05:02:31;;;;;;;1.95;1.05;;;;;;;20.65;43.42;102064.00;5085272;28;20050;-45
2022/05/15 05:04:59;;;;;;;1.95;1.05;;;;;;;20.69;43.55;102071.66;5098919;28;20097;-46
2022/05/15 05:07:25;;;;;;;1.73;1.15;;;;;;;20.67;43.70;102076.34;5084724;28;20111;-46
2022/05/15 05:09:50;;;;;;;2.30;1.02;;;;;;;20.68;43.57;102074.47;5084648;28;20072;-48
2022/05/15 05:12:15;;;;;;;3.28;1.42;;;;;;;20.67;43.51;102070.94;5083275;28;20053;-49
2022/05/15 05:14:41;;;;;;;1.63;1.48;;;;;;;20.67;43.49;102079.03;5084498;28;20430;-44
2022/05/15 05:17:06;;;;;;;1.45;0.88;;;;;;;20.68;43.37;102079.88;5078723;28;20040;-44
2022/05/15 05:19:31;;;;;;;2.70;1.42;;;;;;;20.65;43.44;102066.69;5079845;28;20013;-44
2022/05/15 05:21:56;;;;;;;2.88;1.00;;;;;;;20.66;43.40;102068.38;5064384;28;20032;-47
2022/05/15 05:24:22;;;;;;;1.55;1.00;;;;;;;20.66;43.56;102071.94;5064589;28;20371;-43
2022/05/15 05:26:47;;;;;;;1.73;1.02;;;;;;;20.65;43.71;102078.34;5064135;28;20052;-46
2022/05/15 05:29:12;;;;;;;2.30;1.38;;;;;;;20.66;43.48;102084.59;5064522;28;20027;-45
2022/05/15 05:31:37;;;;;;;2.55;1.25;;;;;;;20.65;43.94;102081.06;5066789;28;20087;-44
2022/05/15 05:34:03;;;;;;;2.05;1.00;;;;;;;20.66;43.70;102088.16;5080567;28;20032;-47
2022/05/15 05:36:28;;;;;;;2.45;1.25;;;;;;;20.66;43.58;102084.59;5083875;28;20096;-43
2022/05/15 05:38:53;;;;;;;2.22;1.55;;;;;;;20.64;43.74;102100.09;5098823;28;20032;-44
2022/05/15 05:41:18;;;;;;;2.60;1.13;;;;;;;20.65;43.92;102097.28;5079236;28;20024;-47
2022/05/15 05:43:44;;;;;;;2.05;0.95;;;;;;;20.66;44.25;102096.25;5081002;28;20040;-45
2022/05/15 05:46:09;;;;;;;2.17;1.17;;;;;;;20.66;44.21;102108.94;5082760;28;20028;-46
2022/05/15 05:48:34;;;;;;;2.88;0.90;;;;;;;20.63;44.09;102103.81;5083504;28;20397;-45
2022/05/15 05:50:59;;;;;;;2.20;1.52;;;;;;;20.65;44.01;102109.94;5082889;28;20375;-44
2022/05/15 05:53:25;;;;;;;2.00;1.15;;;;;;;20.67;44.34;102116.88;5083180;28;20024;-47
2022/05/15 05:55:51;;;;;;;3.25;1.27;;;;;;;20.67;44.45;102116.03;5083269;28;20028;-44
2022/05/15 05:58:16;;;;;;;2.05;1.00;;;;;;;20.65;44.43;102112.63;5082972;28;20111;-44
2022/05/15 06:00:41;;;;;;;2.83;1.92;;;;;;;20.68;44.38;102117.72;5082387;28;20030;-45
2022/05/15 06:05:51;;;;;;;1.45;0.88;;;;;;;20.67;44.13;102119.56;5083447;28;20032;-45
2022/05/15 06:08:17;;;;;;;1.95;1.10;;;;;;;20.67;44.63;102119.56;5082363;28;20033;-44
2022/05/15 06:10:43;;;;;;;1.70;0.90;;;;;;;20.63;44.56;102106.50;5083355;28;20070;-45
2022/05/15 06:13:08;;;;;;;1.60;0.80;;;;;;;20.66;44.54;102117.03;5082011;28;20613;-49
2022/05/15 06:15:34;;;;;;;1.55;1.00;;;;;;;20.67;44.74;102121.44;5083029;28;20024;-48
2022/05/15 06:18:01;;;;;;;2.33;1.10;;;;;;;20.66;44.90;102119.72;5082192;28;20385;-45
2022/05/15 06:20:26;;;;;;;1.35;0.93;;;;;;;20.66;45.05;102120.59;5083718;28;20020;-47
2022/05/15 06:22:52;;;;;;;2.13;1.20;;;;;;;20.63;44.94;102104.66;5083018;28;20085;-46
2022/05/15 06:25:17;;;;;;;2.53;1.23;;;;;;;20.65;45.21;102108.09;5070326;28;20023;-46
2022/05/15 06:27:42;;;;;;;2.47;1.10;;;;;;;20.65;45.34;102093.72;5070836;28;20032;-46
2022/05/15 06:30:09;;;;;;;1.45;1.05;;;;;;;20.65;45.46;102102.69;5071471;28;20036;-46
2022/05/15 06:32:34;;;;;;;2.95;1.17;;;;;;;20.66;45.54;102098.97;5072892;28;20056;-48
2022/05/15 06:34:59;;;;;;;3.05;1.27;;;;;;;20.65;45.57;102108.09;5068343;28;20392;-46
2022/05/15 06:37:25;;;;;;;3.78;1.20;;;;;;;20.65;45.36;102099.13;5076334;28;20047;-45
2022/05/15 06:39:50;;;;;;;1.83;0.93;;;;;;;20.65;45.67;102099.97;5076582;28;20032;-46
2022/05/15 06:42:15;;;;;;;1.02;0.90;;;;;;;20.65;45.36;102099.97;5071227;28;20040;-49
2022/05/15 06:44:41;;;;;;;2.42;1.30;;;;;;;20.65;45.49;102088.31;5080345;28;20036;-52
2022/05/15 06:47:07;;;;;;;1.88;1.10;;;;;;;20.65;45.42;102089.16;5070762;28;20079;-49
2022/05/15 06:49:32;;;;;;;2.38;1.60;;;;;;;20.65;45.40;102086.47;5075032;28;20414;-46
2022/05/15 06:51:57;;;;;;;1.13;0.90;;;;;;;20.65;45.42;102091.88;5073981;28;20053;-48
2022/05/15 06:54:22;;;;;;;2.35;1.20;;;;;;;20.67;45.40;102086.31;5073902;28;20036;-47
2022/05/15 06:59:34;;;;;;;2.58;1.48;;;;;;;20.66;45.69;102084.59;5075275;28;20111;-47
2022/05/15 07:02:00;;;;;;;2.07;1.30;;;;;;;20.65;45.74;102081.06;5064890;28;20033;-48
2022/05/15 07:04:25;;;;;;;2.17;1.05;;;;;;;20.68;45.29;102082.59;5071721;28;20298;-50
2022/05/15 07:06:50;;;;;;;1.80;1.20;;;;;;;20.68;45.32;102082.59;5070273;28;20052;-51
2022/05/15 07:09:16;;;;;;;1.83;1.02;;;;;;;20.69;45.52;102084.31;5079462;28;20044;-50
2022/05/15 07:11:41;;;;;;;2.58;1.27;;;;;;;20.71;45.53;102079.59;5075357;28;20088;-49
2022/05/15 07:14:08;;;;;;;1.95;1.08;;;;;;;20.71;45.31;102082.28;5068572;28;20040;-48
2022/05/15 07:16:33;;;;;;;2.55;1.30;;;;;;;20.74;45.59;102086.56;5075447;28;20035;-52
2022/05/15 07:18:59;;;;;;;3.22;1.48;;;;;;;20.74;45.20;102089.25;5070644;28;20033;-46
2022/05/15 07:21:24;;;;;;;2.35;1.20;;;;;;;20.76;45.23;102089.94;5069199;28;20028;-51
2022/05/15 07:23:49;;;;;;;1.60;1.00;;;;;;;20.76;44.94;102087.25;5071479;28;20024;-51
2022/05/15 07:26:14;;;;;;;2.38;1.30;;;;;;;20.77;45.18;102092.47;5070696;28;20520;-48
2022/05/15 07:28:40;;;;;;;3.28;1.40;;;;;;;20.78;45.15;102087.94;5070973;28;20818;-51
2022/05/15 07:31:05;;;;;;;3.05;1.30;;;;;;;20.80;44.70;102088.63;5070273;28;20024;-51
2022/05/15 07:33:30;;;;;;;2.78;1.63;;;;;;;20.81;44.65;102090.31;5070834;28;20445;-50
2022/05/15 07:35:56;;;;;;;5.55;1.88;;;;;;;20.82;45.01;102082.09;5071193;28;20390;-51
2022/05/15 07:38:22;;;;;;;2.92;1.67;;;;;;;20.82;44.69;102086.66;5068256;28;20446;-49
2022/05/15 07:40:47;;;;;;;5.88;1.88;;;;;;;20.84;44.61;102081.91;5077078;28;20128;-46
2022/05/15 07:43:13;;;;;;;2.00;1.20;;;;;;;20.84;45.01;102088.16;5071826;28;20040;-47
2022/05/15 07:45:38;;;;;;;3.78;1.40;;;;;;;20.78;44.65;102074.44;5071159;28;20055;-49
2022/05/15 07:48:04;;;;;;;4.03;1.55;;;;;;;20.82;44.93;102082.09;5078836;28;20028;-52
2022/05/15 07:50:30;;;;;;;3.13;1.65;;;;;;;20.84;45.04;102088.16;5077173;28;20106;-50
2022/05/15 07:52:55;;;;;;;4.43;1.75;;;;;;;20.84;44.62;102084.63;5079602;28;20051;-53
2022/05/15 07:55:21;;;;;;;1.48;1.00;;;;;;;20.83;44.63;102078.38;5080809;28;20048;-53
2022/05/15 07:57:47;;;;;;;2.58;1.33;;;;;;;20.83;44.53;102070.25;5077380;28;20532;-51
2022/05/15 08:00:14;;;;;;;2.97;1.23;;;;;;;20.84;44.64;102080.06;5073645;28;20035;-52
2022/05/15 08:02:40;;;;;;;2.47;1.10;;;;;;;20.84;44.63;102069.25;5073469;28;20037;-51
2022/05/15 08:08:05;;;;;;;2.83;1.35;;;;;;;20.85;44.54;102080.91;5077791;28;20031;-48
2022/05/15 08:10:33;;;;;;;3.38;1.63;;;;;;;20.86;44.75;102080.78;5073627;28;20017;-49
2022/05/15 08:12:59;;;;;;;2.97;1.40;;;;;;;20.88;44.80;102080.63;5081320;28;20028;-51
2022/05/15 08:15:24;;;;;;;2.95;1.70;;;;;;;20.86;44.65;102061.84;5074794;28;20021;-48
2022/05/15 08:17:49;;;;;;;3.55;1.48;;;;;;;20.89;44.47;102069.63;5078825;28;20033;-52
2022/05/15 08:25:44;;;;;;;4.53;1.67;;;;;;;20.93;44.52;102060.22;5077154;28;20059;-47
2022/05/15 08:28:10;;;;;;;3.55;1.90;;;;;;;20.97;44.25;102064.31;5077617;28;20024;-50
2022/05/15 08:30:35;;;;;;;5.07;1.92;;;;;;;21.00;44.33;102065.03;5071415;28;20029;-44
2022/05/15 08:33:01;;;;;;;4.30;1.88;;;;;;;21.01;44.53;102064.84;5076767;28;20024;-46
2022/05/15 08:35:28;;;;;;;2.28;1.58;;;;;;;21.03;44.28;102059.31;5079947;28;20050;-49
2022/05/15 08:37:53;;;;;;;2.70;1.60;;;;;;;21.05;44.39;102062.69;5077071;28;20059;-51
2022/05/15 08:40:24;;;;;;;2.83;1.20;;;;;;;21.07;44.51;102060.69;5080082;28;20086;-53
2022/05/15 08:42:55;;;;;;;2.95;1.40;;;;;;;21.08;44.18;102062.41;5057019;28;20052;-53
2022/05/15 08:45:23;;;;;;;4.00;1.40;;;;;;;21.09;44.23;102061.38;5077004;28;20044;-49
2022/05/15 08:47:56;;;;;;;2.30;1.25;;;;;;;21.10;44.47;102058.50;5077889;28;20026;-52
2022/05/15 08:50:25;;;;;;;2.42;1.40;;;;;;;21.11;44.05;102056.66;5075427;28;20107;-50
2022/05/15 08:52:58;;;;;;;3.53;1.48;;;;;;;21.12;44.37;102059.22;5074581;28;20052;-48
2022/05/15 08:55:44;;;;;;;3.35;1.27;;;;;;;21.12;44.53;102056.53;5071493;28;20408;-49
2022/05/15 08:58:23;;;;;;;2.08;1.00;;;;;;;21.14;44.28;102057.19;5072798;28;20092;-49
2022/05/15 09:00:51;;;;;;;2.47;1.10;;;;;;;21.01;44.18;102037.81;5073717;28;20111;-48
2022/05/15 09:03:28;;;;;;;2.58;1.45;;;;;;;21.14;44.16;102059.91;5076416;28;20592;-50
2022/05/15 09:06:23;;;;;;;1.48;1.05;;;;;;;21.15;44.19;102052.63;5076216;28;20032;-46
2022/05/15 09:09:10;;;;;;;1.85;1.10;;;;;;;21.14;44.36;102059.06;5058903;28;20084;-48
2022/05/15 09:11:55;;;;;;;1.83;1.05;;;;;;;21.16;44.27;102052.50;5071392;28;20055;-47
2022/05/15 09:14:32;;;;;;;2.22;1.23;;;;;;;21.15;44.38;102047.22;5073756;28;20037;-46
2022/05/15 09:17:01;;;;;;;1.52;0.70;;;;;;;21.16;44.50;102040.84;5069542;28;20032;-48
2022/05/15 09:19:27;;;;;;;1.65;0.93;;;;;;;21.17;44.35;102042.53;5070956;28;20595;-47
2022/05/15 09:21:57;;;;;;;1.92;1.00;;;;;;;21.17;44.70;102034.41;5073732;28;20025;-50
2022/05/15 09:24:33;;;;;;;2.65;1.10;;;;;;;21.19;44.71;102040.50;5072432;28;20024;-50
2022/05/15 09:27:16;;;;;;;2.40;1.10;;;;;;;21.18;44.56;102034.25;5076548;28;20088;-49
2022/05/15 09:29:42;;;;;;;1.60;1.00;;;;;;;21.17;44.78;102027.16;5077186;28;20032;-50
2022/05/15 09:32:35;;;;;;;1.58;0.88;;;;;;;21.18;45.01;102026.13;5073308;28;20029;-50
2022/05/15 09:35:02;;;;;;;2.30;1.10;;;;;;;21.18;44.96;102017.19;5066317;28;20037;-50
2022/05/15 09:40:17;;;;;;;3.25;1.08;;;;;;;21.17;45.10;102013.63;5067676;28;20027;-52
2022/05/15 09:45:56;;;;;;;1.70;0.75;;;;;;;21.21;44.57;102024.97;5065718;28;20060;-49
2022/05/15 09:48:25;;;;;;;1.70;1.00;;;;;;;21.20;44.54;102020.59;5069324;28;20036;-43
2022/05/15 09:50:51;;;;;;;2.13;1.05;;;;;;;21.20;44.63;102020.59;5069185;28;20480;-43
2022/05/15 09:53:36;;;;;;;2.97;1.20;;;;;;;21.21;45.11;102016.88;5076945;28;20036;-43
2022/05/15 09:56:05;;;;;;;4.38;2.22;;;;;;;21.22;44.64;102010.44;5072514;28;20094;-45
2022/05/15 09:58:47;;;;;;;6.20;3.33;;;;;;;21.23;44.63;102012.97;5073143;28;20409;-45
2022/05/15 10:01:15;;;;;;;8.68;4.53;;;;;;;21.24;44.65;102011.16;5074014;28;20110;-43
2022/05/15 10:03:40;;;;;;;9.80;5.05;;;;;;;21.20;44.89;102005.22;5076854;28;20056;-44
2022/05/15 10:06:08;;;;;;;9.77;4.53;;;;;;;21.25;45.26;102001.19;5077690;28;20115;-46
2022/05/15 10:08:34;;;;;;;10.10;4.60;;;;;;;21.21;44.73;101998.78;5069559;28;20034;-46
2022/05/15 10:11:03;;;;;;;10.30;5.03;;;;;;;21.26;45.05;102002.88;5071710;28;20123;-44
2022/05/15 10:13:36;;;;;;;;;;;;;;;21.22;45.41;102005.03;5072590;28;20048;-46
2022/05/15 10:16:15;;;;;;;8.23;4.40;;;;;;;21.25;45.24;101998.47;5056671;28;19955;-45
2022/05/15 10:18:59;;;;;;;;;;;;;;;21.20;45.11;102002.50;5087318;28;20044;-44
2022/05/15 10:21:31;;;;;;;12.10;5.78;;;;;;;21.21;45.13;101998.78;5075901;28;19936;-47
2022/05/15 10:24:00;;;;;;;10.23;5.22;;;;;;;21.26;44.95;101994.75;5064048;28;20396;-45
2022/05/15 10:26:32;;;;;;;8.98;4.53;;;;;;;21.27;45.24;102002.69;5074561;28;20031;-48
2022/05/15 10:29:06;;;;;;;11.18;4.88;;;;;;;21.28;44.86;102000.84;5073727;28;20564;-48
2022/05/15 10:31:49;;;;;;;11.27;6.05;;;;;;;21.29;44.85;101995.28;5069810;28;20031;-51
2022/05/15 10:34:18;;;;;;;10.70;5.43;;;;;;;21.28;45.07;101990.91;5067682;28;20033;-51
2022/05/15 10:36:43;;;;;;;12.02;5.63;;;;;;;21.28;45.00;101990.91;5069177;28;20037;-47
2022/05/15 10:39:30;;;;;;;11.88;5.72;;;;;;;21.30;45.15;101993.44;5073468;28;20032;-49
2022/05/15 10:42:01;;;;;;;12.90;6.57;;;;;;;21.29;45.14;101981.78;5072719;28;20033;-48
2022/05/15 10:44:43;;;;;;;10.68;5.70;;;;;;;21.30;44.81;101972.63;5069534;28;20048;-47
2022/05/15 10:47:14;;;;;;;10.90;5.35;;;;;;;21.30;45.08;101971.78;5072950;28;20024;-48
2022/05/15 10:50:03;;;;;;;11.38;5.57;;;;;;;21.31;44.82;101976.19;5058623;28;20073;-48
2022/05/15 10:52:41;;;;;;;12.02;6.15;;;;;;;21.30;44.92;101969.94;5077305;28;20558;-53
2022/05/15 10:58:20;;;;;;;13.07;6.43;;;;;;;21.32;44.71;101956.28;5070992;28;20063;-51
2022/05/15 11:01:00;;;;;;;12.77;6.18;;;;;;;21.31;45.02;101958.09;5075552;28;20175;-48
2022/05/15 11:03:47;;;;;;;10.82;5.97;;;;;;;21.32;44.80;101948.16;5075307;28;20054;-50
2022/05/15 11:06:39;;;;;;;13.25;5.72;;;;;;;21.29;45.19;101946.59;5070473;28;20032;-48
2022/05/15 11:09:29;;;;;;;9.68;5.03;;;;;;;21.31;44.95;101947.28;5070743;28;20032;-48
2022/05/15 11:12:24;;;;;;;12.98;6.40;;;;;;;21.33;44.94;101944.47;5073210;28;20040;-52
2022/05/15 11:15:31;;;;;;;13.88;6.00;;;;;;;21.31;44.92;101944.56;5065675;28;20063;-51
2022/05/15 11:18:14;;;;;;;11.32;6.32;;;;;;;21.32;45.24;101945.44;5074046;28;20465;-49
2022/05/15 11:20:41;;;;;;;10.45;5.45;;;;;;;21.32;45.22;101942.75;5065626;28;20056;-51
2022/05/15 11:23:14;;;;;;;10.90;5.85;;;;;;;21.33;45.12;101939.06;5080664;28;20465;-47
2022/05/15 11:25:44;;;;;;;9.90;5.05;;;;;;;21.34;44.98;101935.34;5073779;28;20039;-50
2022/05/15 11:28:15;;;;;;;10.43;5.45;;;;;;;21.35;45.11;101939.72;5071557;28;20082;-49
2022/05/15 11:30:42;;;;;;;11.18;5.70;;;;;;;21.35;45.32;101931.63;5078418;28;20059;-48
2022/05/15 11:33:16;;;;;;;8.88;4.82;;;;;;;21.35;45.01;101929.75;5081879;28;20036;-49
2022/05/15 11:36:07;;;;;;;9.60;5.22;;;;;;;21.36;45.09;101923.31;5072834;28;20047;-50
2022/05/15 11:39:05;;;;;;;9.57;4.80;;;;;;;21.38;44.84;101928.59;5072784;28;20039;-46
2022/05/15 11:41:33;;;;;;;9.13;4.78;;;;;;;21.36;45.24;101925.19;5071853;28;20020;-49
2022/05/15 11:44:00;;;;;;;9.00;4.75;;;;;;;21.35;45.43;101918.94;5073320;28;20071;-43
2022/05/15 11:46:45;;;;;;;9.68;5.00;;;;;;;21.38;45.53;101912.38;5077041;28;20486;-51
2022/05/15 11:49:32;;;;;;;8.32;4.47;;;;;;;21.38;45.29;101906.94;5079247;28;20032;-51
2022/05/15 11:52:04;;;;;;;8.95;4.93;;;;;;;21.39;45.07;101908.66;5075199;28;20131;-52
2022/05/15 11:54:33;;;;;;;7.97;4.18;;;;;;;21.39;45.45;101898.66;5080944;28;20044;-52
2022/05/15 11:56:59;;;;;;;8.93;4.97;;;;;;;21.38;45.32;101896.97;5071294;28;20025;-50